sensor_id;sensor_type;location;lat;lon;timestamp;P1;durP1;ratioP1;P2;durP2;ratioP2
39218;SDS011;24934;52.752;6.964;2023-07-24T00:01:12;13.57;;;12.35;;
39218;SDS011;24934;52.752;6.964;2023-07-24T00:03:38;12.95;;;11.77;;
39218;SDS011;24934;52.752;6.964;2023-07-24T00:06:03;13.40;;;12.20;;
39218;SDS011;24934;52.752;6.964;2023-07-24T00:08:29;13.38;;;12.18;;
39218;SDS011;24934;52.752;6.964;2023-07-24T00:10:54;13.50;;;12.20;;
39218;SDS011;24934;52.752;6.964;2023-07-24T00:13:20;13.90;;;12.60;;
39218;SDS011;24934;52.752;6.964;2023-07-24T00:15:46;13.65;;;12.38;;
39218;SDS011;24934;52.752;6.964;2023-07-24T00:18:11;14.25;;;12.75;;
39218;SDS011;24934;52.752;6.964;2023-07-24T00:20:37;15.02;;;13.43;;
39218;SDS011;24934;52.752;6.964;2023-07-24T00:23:03;15.63;;;13.90;;
39218;SDS011;24934;52.752;6.964;2023-07-24T00:25:28;15.10;;;13.57;;
39218;SDS011;24934;52.752;6.964;2023-07-24T00:27:54;15.05;;;13.55;;
39218;SDS011;24934;52.752;6.964;2023-07-24T00:30:19;16.10;;;13.25;;
39218;SDS011;24934;52.752;6.964;2023-07-24T00:32:45;14.77;;;13.38;;
39218;SDS011;24934;52.752;6.964;2023-07-24T00:35:11;15.05;;;13.43;;
39218;SDS011;24934;52.752;6.964;2023-07-24T00:37:37;16.50;;;14.75;;
39218;SDS011;24934;52.752;6.964;2023-07-24T00:40:02;16.13;;;14.52;;
39218;SDS011;24934;52.752;6.964;2023-07-24T00:42:29;15.60;;;14.05;;
39218;SDS011;24934;52.752;6.964;2023-07-24T00:44:54;16.70;;;15.10;;
39218;SDS011;24934;52.752;6.964;2023-07-24T00:47:20;17.42;;;15.60;;
39218;SDS011;24934;52.752;6.964;2023-07-24T00:49:46;17.17;;;15.43;;
39218;SDS011;24934;52.752;6.964;2023-07-24T00:52:13;17.80;;;16.17;;
39218;SDS011;24934;52.752;6.964;2023-07-24T00:54:40;18.40;;;16.45;;
39218;SDS011;24934;52.752;6.964;2023-07-24T00:57:06;17.30;;;15.48;;
39218;SDS011;24934;52.752;6.964;2023-07-24T00:59:31;18.33;;;16.40;;
39218;SDS011;24934;52.752;6.964;2023-07-24T01:01:57;18.17;;;15.55;;
39218;SDS011;24934;52.752;6.964;2023-07-24T01:04:23;17.20;;;15.20;;
39218;SDS011;24934;52.752;6.964;2023-07-24T01:06:49;15.88;;;14.23;;
39218;SDS011;24934;52.752;6.964;2023-07-24T01:09:14;16.80;;;15.10;;
39218;SDS011;24934;52.752;6.964;2023-07-24T01:11:43;16.55;;;14.90;;
39218;SDS011;24934;52.752;6.964;2023-07-24T01:16:49;17.55;;;15.60;;
39218;SDS011;24934;52.752;6.964;2023-07-24T01:27:33;15.30;;;13.82;;
39218;SDS011;24934;52.752;6.964;2023-07-24T01:29:59;15.38;;;13.98;;
39218;SDS011;24934;52.752;6.964;2023-07-24T01:32:25;15.68;;;13.63;;
39218;SDS011;24934;52.752;6.964;2023-07-24T01:34:51;15.65;;;14.25;;
39218;SDS011;24934;52.752;6.964;2023-07-24T01:37:17;16.02;;;14.38;;
39218;SDS011;24934;52.752;6.964;2023-07-24T01:39:45;15.35;;;13.85;;
39218;SDS011;24934;52.752;6.964;2023-07-24T01:42:12;15.65;;;14.25;;
39218;SDS011;24934;52.752;6.964;2023-07-24T01:44:39;15.90;;;14.20;;
39218;SDS011;24934;52.752;6.964;2023-07-24T01:47:04;16.65;;;15.15;;
39218;SDS011;24934;52.752;6.964;2023-07-24T01:49:30;16.77;;;15.18;;
39218;SDS011;24934;52.752;6.964;2023-07-24T01:51:56;17.00;;;15.43;;
39218;SDS011;24934;52.752;6.964;2023-07-24T01:54:22;17.15;;;15.50;;
39218;SDS011;24934;52.752;6.964;2023-07-24T01:56:48;16.33;;;14.82;;
39218;SDS011;24934;52.752;6.964;2023-07-24T01:59:13;16.73;;;15.30;;
39218;SDS011;24934;52.752;6.964;2023-07-24T02:01:39;17.75;;;16.13;;
39218;SDS011;24934;52.752;6.964;2023-07-24T02:04:06;16.83;;;15.32;;
39218;SDS011;24934;52.752;6.964;2023-07-24T02:06:31;16.90;;;15.40;;
39218;SDS011;24934;52.752;6.964;2023-07-24T02:08:57;17.13;;;15.57;;
39218;SDS011;24934;52.752;6.964;2023-07-24T02:11:22;16.80;;;15.20;;
39218;SDS011;24934;52.752;6.964;2023-07-24T02:13:48;16.83;;;15.27;;
39218;SDS011;24934;52.752;6.964;2023-07-24T02:16:13;17.10;;;15.43;;
39218;SDS011;24934;52.752;6.964;2023-07-24T02:18:41;16.10;;;14.60;;
39218;SDS011;24934;52.752;6.964;2023-07-24T02:21:07;17.02;;;15.32;;
39218;SDS011;24934;52.752;6.964;2023-07-24T02:23:33;16.70;;;15.10;;
39218;SDS011;24934;52.752;6.964;2023-07-24T02:25:59;17.48;;;15.73;;
39218;SDS011;24934;52.752;6.964;2023-07-24T02:28:25;18.25;;;16.60;;
39218;SDS011;24934;52.752;6.964;2023-07-24T02:30:51;18.15;;;16.50;;
39218;SDS011;24934;52.752;6.964;2023-07-24T02:33:20;17.85;;;16.13;;
39218;SDS011;24934;52.752;6.964;2023-07-24T02:35:46;17.00;;;15.45;;
39218;SDS011;24934;52.752;6.964;2023-07-24T02:38:12;17.55;;;15.65;;
39218;SDS011;24934;52.752;6.964;2023-07-24T02:40:40;17.02;;;15.43;;
39218;SDS011;24934;52.752;6.964;2023-07-24T02:43:06;16.55;;;15.20;;
39218;SDS011;24934;52.752;6.964;2023-07-24T02:45:35;16.38;;;15.02;;
39218;SDS011;24934;52.752;6.964;2023-07-24T02:48:02;17.48;;;15.77;;
39218;SDS011;24934;52.752;6.964;2023-07-24T02:50:28;17.10;;;15.60;;
39218;SDS011;24934;52.752;6.964;2023-07-24T02:52:54;16.15;;;14.85;;
39218;SDS011;24934;52.752;6.964;2023-07-24T02:55:19;16.67;;;15.10;;
39218;SDS011;24934;52.752;6.964;2023-07-24T02:57:45;15.85;;;14.48;;
39218;SDS011;24934;52.752;6.964;2023-07-24T03:00:11;16.38;;;14.80;;
39218;SDS011;24934;52.752;6.964;2023-07-24T03:02:37;14.98;;;13.57;;
39218;SDS011;24934;52.752;6.964;2023-07-24T03:05:03;16.65;;;15.05;;
39218;SDS011;24934;52.752;6.964;2023-07-24T03:07:29;16.60;;;15.02;;
39218;SDS011;24934;52.752;6.964;2023-07-24T03:09:55;15.65;;;14.23;;
39218;SDS011;24934;52.752;6.964;2023-07-24T03:12:21;15.68;;;14.30;;
39218;SDS011;24934;52.752;6.964;2023-07-24T03:14:46;16.05;;;14.65;;
39218;SDS011;24934;52.752;6.964;2023-07-24T03:17:12;16.08;;;14.57;;
39218;SDS011;24934;52.752;6.964;2023-07-24T03:19:40;16.00;;;14.35;;
39218;SDS011;24934;52.752;6.964;2023-07-24T03:22:06;16.02;;;14.32;;
39218;SDS011;24934;52.752;6.964;2023-07-24T03:24:32;16.90;;;15.15;;
39218;SDS011;24934;52.752;6.964;2023-07-24T03:26:59;16.48;;;14.88;;
39218;SDS011;24934;52.752;6.964;2023-07-24T03:29:25;16.50;;;15.00;;
39218;SDS011;24934;52.752;6.964;2023-07-24T03:31:51;15.77;;;14.35;;
39218;SDS011;24934;52.752;6.964;2023-07-24T03:34:17;15.95;;;14.40;;
39218;SDS011;24934;52.752;6.964;2023-07-24T03:36:42;17.27;;;15.68;;
39218;SDS011;24934;52.752;6.964;2023-07-24T03:39:11;18.30;;;16.60;;
39218;SDS011;24934;52.752;6.964;2023-07-24T03:41:37;18.63;;;16.92;;
39218;SDS011;24934;52.752;6.964;2023-07-24T03:44:03;19.67;;;17.67;;
39218;SDS011;24934;52.752;6.964;2023-07-24T03:46:29;18.75;;;17.05;;
39218;SDS011;24934;52.752;6.964;2023-07-24T03:48:56;20.92;;;17.95;;
39218;SDS011;24934;52.752;6.964;2023-07-24T03:51:22;19.48;;;17.58;;
39218;SDS011;24934;52.752;6.964;2023-07-24T03:53:47;19.35;;;17.55;;
39218;SDS011;24934;52.752;6.964;2023-07-24T03:56:13;20.02;;;18.23;;
39218;SDS011;24934;52.752;6.964;2023-07-24T03:58:38;19.88;;;17.98;;
39218;SDS011;24934;52.752;6.964;2023-07-24T04:01:04;19.67;;;17.85;;
39218;SDS011;24934;52.752;6.964;2023-07-24T04:03:30;20.08;;;18.15;;
39218;SDS011;24934;52.752;6.964;2023-07-24T04:05:56;20.95;;;19.05;;
39218;SDS011;24934;52.752;6.964;2023-07-24T04:08:22;23.20;;;19.50;;
39218;SDS011;24934;52.752;6.964;2023-07-24T04:10:48;23.45;;;21.23;;
39218;SDS011;24934;52.752;6.964;2023-07-24T04:13:13;22.60;;;20.50;;
39218;SDS011;24934;52.752;6.964;2023-07-24T04:15:39;23.05;;;20.77;;
39218;SDS011;24934;52.752;6.964;2023-07-24T04:18:05;23.88;;;21.67;;
39218;SDS011;24934;52.752;6.964;2023-07-24T04:20:30;23.80;;;21.50;;
39218;SDS011;24934;52.752;6.964;2023-07-24T04:22:56;23.63;;;21.25;;
39218;SDS011;24934;52.752;6.964;2023-07-24T04:25:22;22.77;;;20.60;;
39218;SDS011;24934;52.752;6.964;2023-07-24T04:27:47;22.23;;;20.13;;
39218;SDS011;24934;52.752;6.964;2023-07-24T04:30:13;22.45;;;20.25;;
39218;SDS011;24934;52.752;6.964;2023-07-24T04:32:38;24.08;;;21.77;;
39218;SDS011;24934;52.752;6.964;2023-07-24T04:35:04;23.67;;;21.45;;
39218;SDS011;24934;52.752;6.964;2023-07-24T04:37:30;23.30;;;21.10;;
39218;SDS011;24934;52.752;6.964;2023-07-24T04:39:56;23.48;;;21.25;;
39218;SDS011;24934;52.752;6.964;2023-07-24T04:42:22;23.38;;;21.05;;
39218;SDS011;24934;52.752;6.964;2023-07-24T04:44:47;22.70;;;20.30;;
39218;SDS011;24934;52.752;6.964;2023-07-24T04:47:15;22.58;;;20.27;;
39218;SDS011;24934;52.752;6.964;2023-07-24T04:49:40;22.70;;;20.50;;
39218;SDS011;24934;52.752;6.964;2023-07-24T04:52:06;22.58;;;20.50;;
39218;SDS011;24934;52.752;6.964;2023-07-24T04:54:32;20.42;;;18.60;;
39218;SDS011;24934;52.752;6.964;2023-07-24T04:56:57;22.83;;;20.48;;
39218;SDS011;24934;52.752;6.964;2023-07-24T04:59:23;21.45;;;19.38;;
39218;SDS011;24934;52.752;6.964;2023-07-24T05:01:51;21.58;;;19.55;;
39218;SDS011;24934;52.752;6.964;2023-07-24T05:04:17;22.02;;;19.92;;
39218;SDS011;24934;52.752;6.964;2023-07-24T05:06:42;22.58;;;20.45;;
39218;SDS011;24934;52.752;6.964;2023-07-24T05:09:08;22.15;;;20.15;;
39218;SDS011;24934;52.752;6.964;2023-07-24T05:11:33;22.63;;;20.40;;
39218;SDS011;24934;52.752;6.964;2023-07-24T05:13:59;21.73;;;19.73;;
39218;SDS011;24934;52.752;6.964;2023-07-24T05:16:24;23.05;;;20.65;;
39218;SDS011;24934;52.752;6.964;2023-07-24T05:18:50;22.73;;;20.63;;
39218;SDS011;24934;52.752;6.964;2023-07-24T05:21:16;22.30;;;20.10;;
39218;SDS011;24934;52.752;6.964;2023-07-24T05:23:41;23.58;;;20.60;;
39218;SDS011;24934;52.752;6.964;2023-07-24T05:26:07;22.67;;;20.60;;
39218;SDS011;24934;52.752;6.964;2023-07-24T05:28:33;24.40;;;21.98;;
39218;SDS011;24934;52.752;6.964;2023-07-24T05:31:02;23.05;;;20.95;;
39218;SDS011;24934;52.752;6.964;2023-07-24T05:33:29;24.23;;;22.02;;
39218;SDS011;24934;52.752;6.964;2023-07-24T05:35:58;24.33;;;22.08;;
39218;SDS011;24934;52.752;6.964;2023-07-24T05:38:27;22.77;;;20.70;;
39218;SDS011;24934;52.752;6.964;2023-07-24T05:40:57;24.85;;;22.20;;
39218;SDS011;24934;52.752;6.964;2023-07-24T05:43:23;24.90;;;22.33;;
39218;SDS011;24934;52.752;6.964;2023-07-24T05:45:50;23.77;;;21.60;;
39218;SDS011;24934;52.752;6.964;2023-07-24T05:48:16;23.48;;;21.27;;
39218;SDS011;24934;52.752;6.964;2023-07-24T05:50:42;24.15;;;21.95;;
39218;SDS011;24934;52.752;6.964;2023-07-24T05:53:08;24.98;;;22.67;;
39218;SDS011;24934;52.752;6.964;2023-07-24T05:55:34;25.02;;;22.63;;
39218;SDS011;24934;52.752;6.964;2023-07-24T05:58:00;25.13;;;22.73;;
39218;SDS011;24934;52.752;6.964;2023-07-24T06:00:25;25.42;;;23.05;;
39218;SDS011;24934;52.752;6.964;2023-07-24T06:02:51;24.92;;;22.05;;
39218;SDS011;24934;52.752;6.964;2023-07-24T06:05:17;24.50;;;22.10;;
39218;SDS011;24934;52.752;6.964;2023-07-24T06:07:44;24.65;;;22.17;;
39218;SDS011;24934;52.752;6.964;2023-07-24T06:10:10;23.65;;;21.55;;
39218;SDS011;24934;52.752;6.964;2023-07-24T06:12:36;24.85;;;22.55;;
39218;SDS011;24934;52.752;6.964;2023-07-24T06:15:09;24.13;;;21.83;;
39218;SDS011;24934;52.752;6.964;2023-07-24T06:17:35;24.08;;;21.98;;
39218;SDS011;24934;52.752;6.964;2023-07-24T06:20:01;24.45;;;22.15;;
39218;SDS011;24934;52.752;6.964;2023-07-24T06:22:26;23.75;;;21.65;;
39218;SDS011;24934;52.752;6.964;2023-07-24T06:24:52;23.38;;;21.38;;
39218;SDS011;24934;52.752;6.964;2023-07-24T06:27:17;23.38;;;21.20;;
39218;SDS011;24934;52.752;6.964;2023-07-24T06:29:43;23.45;;;21.23;;
39218;SDS011;24934;52.752;6.964;2023-07-24T06:32:09;23.25;;;21.00;;
39218;SDS011;24934;52.752;6.964;2023-07-24T06:34:34;23.00;;;21.00;;
39218;SDS011;24934;52.752;6.964;2023-07-24T06:37:00;22.30;;;20.05;;
39218;SDS011;24934;52.752;6.964;2023-07-24T06:39:26;22.70;;;20.40;;
39218;SDS011;24934;52.752;6.964;2023-07-24T06:42:00;21.30;;;19.30;;
39218;SDS011;24934;52.752;6.964;2023-07-24T06:44:25;21.23;;;19.33;;
39218;SDS011;24934;52.752;6.964;2023-07-24T06:46:51;21.77;;;19.77;;
39218;SDS011;24934;52.752;6.964;2023-07-24T06:49:17;22.65;;;20.45;;
39218;SDS011;24934;52.752;6.964;2023-07-24T06:51:42;20.15;;;18.40;;
39218;SDS011;24934;52.752;6.964;2023-07-24T06:54:08;20.45;;;18.50;;
39218;SDS011;24934;52.752;6.964;2023-07-24T06:56:34;21.15;;;19.15;;
39218;SDS011;24934;52.752;6.964;2023-07-24T06:58:59;19.60;;;17.92;;
39218;SDS011;24934;52.752;6.964;2023-07-24T07:01:25;20.17;;;18.30;;
39218;SDS011;24934;52.752;6.964;2023-07-24T07:03:51;20.88;;;19.08;;
39218;SDS011;24934;52.752;6.964;2023-07-24T07:06:17;20.83;;;18.75;;
39218;SDS011;24934;52.752;6.964;2023-07-24T07:08:42;20.10;;;18.23;;
39218;SDS011;24934;52.752;6.964;2023-07-24T07:11:08;20.63;;;18.65;;
39218;SDS011;24934;52.752;6.964;2023-07-24T07:13:34;21.05;;;19.10;;
39218;SDS011;24934;52.752;6.964;2023-07-24T07:15:59;20.23;;;18.48;;
39218;SDS011;24934;52.752;6.964;2023-07-24T07:18:25;20.88;;;18.95;;
39218;SDS011;24934;52.752;6.964;2023-07-24T07:20:51;19.65;;;17.85;;
39218;SDS011;24934;52.752;6.964;2023-07-24T07:23:18;20.20;;;18.20;;
39218;SDS011;24934;52.752;6.964;2023-07-24T07:25:44;20.73;;;18.67;;
39218;SDS011;24934;52.752;6.964;2023-07-24T07:28:11;19.30;;;17.58;;
39218;SDS011;24934;52.752;6.964;2023-07-24T07:30:37;19.58;;;17.95;;
39218;SDS011;24934;52.752;6.964;2023-07-24T07:33:03;20.30;;;18.45;;
39218;SDS011;24934;52.752;6.964;2023-07-24T07:35:30;19.38;;;17.58;;
39218;SDS011;24934;52.752;6.964;2023-07-24T07:37:57;19.42;;;17.63;;
39218;SDS011;24934;52.752;6.964;2023-07-24T07:40:43;23.08;;;17.65;;
39218;SDS011;24934;52.752;6.964;2023-07-24T07:43:09;18.90;;;17.10;;
39218;SDS011;24934;52.752;6.964;2023-07-24T07:45:35;19.40;;;17.35;;
39218;SDS011;24934;52.752;6.964;2023-07-24T07:48:00;22.15;;;19.48;;
39218;SDS011;24934;52.752;6.964;2023-07-24T07:50:26;20.15;;;18.08;;
39218;SDS011;24934;52.752;6.964;2023-07-24T07:52:52;19.90;;;17.77;;
39218;SDS011;24934;52.752;6.964;2023-07-24T07:55:18;21.02;;;19.05;;
39218;SDS011;24934;52.752;6.964;2023-07-24T07:57:44;20.95;;;18.80;;
39218;SDS011;24934;52.752;6.964;2023-07-24T08:00:10;21.10;;;18.95;;
39218;SDS011;24934;52.752;6.964;2023-07-24T08:02:36;20.50;;;17.88;;
39218;SDS011;24934;52.752;6.964;2023-07-24T08:05:08;21.52;;;19.52;;
39218;SDS011;24934;52.752;6.964;2023-07-24T08:07:36;21.70;;;19.58;;
39218;SDS011;24934;52.752;6.964;2023-07-24T08:10:03;20.88;;;19.02;;
39218;SDS011;24934;52.752;6.964;2023-07-24T08:12:29;20.15;;;18.35;;
39218;SDS011;24934;52.752;6.964;2023-07-24T08:14:57;22.58;;;20.42;;
39218;SDS011;24934;52.752;6.964;2023-07-24T08:17:23;20.33;;;18.52;;
39218;SDS011;24934;52.752;6.964;2023-07-24T08:19:49;25.42;;;19.92;;
39218;SDS011;24934;52.752;6.964;2023-07-24T08:22:14;20.05;;;18.17;;
39218;SDS011;24934;52.752;6.964;2023-07-24T08:24:40;20.55;;;18.55;;
39218;SDS011;24934;52.752;6.964;2023-07-24T08:27:06;20.23;;;18.30;;
39218;SDS011;24934;52.752;6.964;2023-07-24T08:29:31;20.85;;;18.85;;
39218;SDS011;24934;52.752;6.964;2023-07-24T08:31:58;19.90;;;18.00;;
39218;SDS011;24934;52.752;6.964;2023-07-24T08:34:23;19.73;;;18.02;;
39218;SDS011;24934;52.752;6.964;2023-07-24T08:36:49;19.20;;;17.50;;
39218;SDS011;24934;52.752;6.964;2023-07-24T08:39:15;19.58;;;17.58;;
39218;SDS011;24934;52.752;6.964;2023-07-24T08:41:40;19.15;;;17.45;;
39218;SDS011;24934;52.752;6.964;2023-07-24T08:44:09;20.73;;;18.80;;
39218;SDS011;24934;52.752;6.964;2023-07-24T08:46:36;21.80;;;18.02;;
39218;SDS011;24934;52.752;6.964;2023-07-24T08:49:03;20.00;;;18.17;;
39218;SDS011;24934;52.752;6.964;2023-07-24T08:51:29;20.40;;;18.40;;
39218;SDS011;24934;52.752;6.964;2023-07-24T08:53:56;19.52;;;17.65;;
39218;SDS011;24934;52.752;6.964;2023-07-24T08:56:22;19.08;;;17.48;;
39218;SDS011;24934;52.752;6.964;2023-07-24T08:58:48;19.90;;;18.00;;
39218;SDS011;24934;52.752;6.964;2023-07-24T09:01:13;19.75;;;17.80;;
39218;SDS011;24934;52.752;6.964;2023-07-24T09:03:39;19.75;;;18.00;;
39218;SDS011;24934;52.752;6.964;2023-07-24T09:06:08;20.77;;;18.98;;
39218;SDS011;24934;52.752;6.964;2023-07-24T09:08:34;22.02;;;20.02;;
39218;SDS011;24934;52.752;6.964;2023-07-24T09:11:02;22.13;;;19.85;;
39218;SDS011;24934;52.752;6.964;2023-07-24T09:13:29;21.30;;;19.30;;
39218;SDS011;24934;52.752;6.964;2023-07-24T09:15:55;21.05;;;19.15;;
39218;SDS011;24934;52.752;6.964;2023-07-24T09:18:21;20.80;;;18.92;;
39218;SDS011;24934;52.752;6.964;2023-07-24T09:20:48;20.70;;;18.65;;
39218;SDS011;24934;52.752;6.964;2023-07-24T09:23:14;20.10;;;18.40;;
39218;SDS011;24934;52.752;6.964;2023-07-24T09:25:41;20.15;;;18.23;;
39218;SDS011;24934;52.752;6.964;2023-07-24T09:28:15;18.38;;;16.67;;
39218;SDS011;24934;52.752;6.964;2023-07-24T09:33:39;19.85;;;17.92;;
39218;SDS011;24934;52.752;6.964;2023-07-24T09:36:06;17.48;;;15.88;;
39218;SDS011;24934;52.752;6.964;2023-07-24T09:38:33;17.25;;;15.68;;
39218;SDS011;24934;52.752;6.964;2023-07-24T09:41:00;17.67;;;15.95;;
39218;SDS011;24934;52.752;6.964;2023-07-24T09:43:30;19.15;;;17.13;;
39218;SDS011;24934;52.752;6.964;2023-07-24T09:45:56;19.30;;;17.63;;
39218;SDS011;24934;52.752;6.964;2023-07-24T09:48:26;17.83;;;16.33;;
39218;SDS011;24934;52.752;6.964;2023-07-24T09:50:53;16.83;;;15.43;;
39218;SDS011;24934;52.752;6.964;2023-07-24T09:56:20;17.70;;;16.10;;
39218;SDS011;24934;52.752;6.964;2023-07-24T09:58:47;17.33;;;15.73;;
39218;SDS011;24934;52.752;6.964;2023-07-24T10:01:14;17.98;;;16.35;;
39218;SDS011;24934;52.752;6.964;2023-07-24T10:03:50;17.00;;;15.40;;
39218;SDS011;24934;52.752;6.964;2023-07-24T10:06:16;18.33;;;16.55;;
39218;SDS011;24934;52.752;6.964;2023-07-24T10:08:42;18.08;;;15.50;;
39218;SDS011;24934;52.752;6.964;2023-07-24T10:11:09;18.15;;;16.45;;
39218;SDS011;24934;52.752;6.964;2023-07-24T10:13:36;18.35;;;16.65;;
39218;SDS011;24934;52.752;6.964;2023-07-24T10:16:03;17.83;;;16.25;;
39218;SDS011;24934;52.752;6.964;2023-07-24T10:18:31;17.77;;;16.27;;
39218;SDS011;24934;52.752;6.964;2023-07-24T10:21:02;17.67;;;15.98;;
39218;SDS011;24934;52.752;6.964;2023-07-24T10:23:33;20.15;;;18.20;;
39218;SDS011;24934;52.752;6.964;2023-07-24T10:26:04;20.35;;;18.30;;
39218;SDS011;24934;52.752;6.964;2023-07-24T10:28:34;18.50;;;16.88;;
39218;SDS011;24934;52.752;6.964;2023-07-24T10:31:05;16.90;;;15.35;;
39218;SDS011;24934;52.752;6.964;2023-07-24T10:33:34;17.83;;;15.93;;
39218;SDS011;24934;52.752;6.964;2023-07-24T10:36:06;17.08;;;15.55;;
39218;SDS011;24934;52.752;6.964;2023-07-24T10:38:39;16.15;;;14.70;;
39218;SDS011;24934;52.752;6.964;2023-07-24T10:41:06;17.38;;;15.85;;
39218;SDS011;24934;52.752;6.964;2023-07-24T10:43:40;16.33;;;14.93;;
39218;SDS011;24934;52.752;6.964;2023-07-24T10:46:10;17.45;;;15.95;;
39218;SDS011;24934;52.752;6.964;2023-07-24T10:48:36;16.23;;;14.73;;
39218;SDS011;24934;52.752;6.964;2023-07-24T10:51:09;17.75;;;16.25;;
39218;SDS011;24934;52.752;6.964;2023-07-24T10:53:36;17.10;;;15.57;;
39218;SDS011;24934;52.752;6.964;2023-07-24T10:56:05;16.60;;;15.20;;
39218;SDS011;24934;52.752;6.964;2023-07-24T10:58:32;16.20;;;14.85;;
39218;SDS011;24934;52.752;6.964;2023-07-24T11:00:58;15.80;;;14.50;;
39218;SDS011;24934;52.752;6.964;2023-07-24T11:03:24;15.32;;;13.90;;
39218;SDS011;24934;52.752;6.964;2023-07-24T11:05:50;15.15;;;13.85;;
39218;SDS011;24934;52.752;6.964;2023-07-24T11:08:19;15.80;;;14.50;;
39218;SDS011;24934;52.752;6.964;2023-07-24T11:10:49;16.10;;;14.70;;
39218;SDS011;24934;52.752;6.964;2023-07-24T11:13:16;15.65;;;14.35;;
39218;SDS011;24934;52.752;6.964;2023-07-24T11:15:43;16.08;;;14.77;;
39218;SDS011;24934;52.752;6.964;2023-07-24T11:18:11;16.65;;;15.20;;
39218;SDS011;24934;52.752;6.964;2023-07-24T11:20:38;17.35;;;15.70;;
39218;SDS011;24934;52.752;6.964;2023-07-24T11:23:21;17.30;;;15.73;;
39218;SDS011;24934;52.752;6.964;2023-07-24T11:25:51;16.52;;;15.23;;
39218;SDS011;24934;52.752;6.964;2023-07-24T11:28:18;17.63;;;16.23;;
39218;SDS011;24934;52.752;6.964;2023-07-24T11:30:44;17.65;;;15.18;;
39218;SDS011;24934;52.752;6.964;2023-07-24T11:33:11;16.92;;;15.32;;
39218;SDS011;24934;52.752;6.964;2023-07-24T11:35:39;16.38;;;14.95;;
39218;SDS011;24934;52.752;6.964;2023-07-24T11:38:06;16.15;;;14.82;;
39218;SDS011;24934;52.752;6.964;2023-07-24T11:40:38;16.73;;;15.23;;
39218;SDS011;24934;52.752;6.964;2023-07-24T11:43:05;17.65;;;15.88;;
39218;SDS011;24934;52.752;6.964;2023-07-24T11:45:41;16.67;;;15.18;;
39218;SDS011;24934;52.752;6.964;2023-07-24T11:48:11;17.15;;;15.45;;
39218;SDS011;24934;52.752;6.964;2023-07-24T11:50:43;18.17;;;16.58;;
39218;SDS011;24934;52.752;6.964;2023-07-24T11:53:20;17.17;;;15.68;;
39218;SDS011;24934;52.752;6.964;2023-07-24T11:55:48;18.27;;;16.27;;
39218;SDS011;24934;52.752;6.964;2023-07-24T11:58:15;17.30;;;15.60;;
39218;SDS011;24934;52.752;6.964;2023-07-24T12:00:41;18.70;;;15.65;;
39218;SDS011;24934;52.752;6.964;2023-07-24T12:03:07;16.80;;;15.20;;
39218;SDS011;24934;52.752;6.964;2023-07-24T12:05:43;17.40;;;15.82;;
39218;SDS011;24934;52.752;6.964;2023-07-24T12:08:09;17.92;;;16.23;;
39218;SDS011;24934;52.752;6.964;2023-07-24T12:10:36;16.92;;;15.43;;
39218;SDS011;24934;52.752;6.964;2023-07-24T12:13:03;17.45;;;15.75;;
39218;SDS011;24934;52.752;6.964;2023-07-24T12:15:29;16.60;;;15.05;;
39218;SDS011;24934;52.752;6.964;2023-07-24T12:18:23;17.50;;;15.88;;
39218;SDS011;24934;52.752;6.964;2023-07-24T12:20:49;18.05;;;16.35;;
39218;SDS011;24934;52.752;6.964;2023-07-24T12:23:14;17.27;;;15.68;;
39218;SDS011;24934;52.752;6.964;2023-07-24T12:25:41;16.85;;;15.27;;
39218;SDS011;24934;52.752;6.964;2023-07-24T12:28:06;17.33;;;15.73;;
39218;SDS011;24934;52.752;6.964;2023-07-24T12:30:32;17.17;;;15.63;;
39218;SDS011;24934;52.752;6.964;2023-07-24T12:32:58;17.67;;;15.85;;
39218;SDS011;24934;52.752;6.964;2023-07-24T12:35:24;18.48;;;16.77;;
39218;SDS011;24934;52.752;6.964;2023-07-24T12:37:49;18.20;;;16.70;;
39218;SDS011;24934;52.752;6.964;2023-07-24T12:40:15;17.42;;;15.73;;
39218;SDS011;24934;52.752;6.964;2023-07-24T12:42:41;17.77;;;16.17;;
39218;SDS011;24934;52.752;6.964;2023-07-24T12:45:06;16.75;;;15.20;;
39218;SDS011;24934;52.752;6.964;2023-07-24T12:47:32;17.75;;;16.10;;
39218;SDS011;24934;52.752;6.964;2023-07-24T12:49:58;17.70;;;16.00;;
39218;SDS011;24934;52.752;6.964;2023-07-24T12:52:25;16.05;;;14.57;;
39218;SDS011;24934;52.752;6.964;2023-07-24T12:54:51;16.77;;;15.07;;
39218;SDS011;24934;52.752;6.964;2023-07-24T12:57:17;16.10;;;14.60;;
39218;SDS011;24934;52.752;6.964;2023-07-24T12:59:42;16.95;;;15.40;;
39218;SDS011;24934;52.752;6.964;2023-07-24T13:02:08;18.52;;;16.70;;
39218;SDS011;24934;52.752;6.964;2023-07-24T13:04:33;17.75;;;16.25;;
39218;SDS011;24934;52.752;6.964;2023-07-24T13:06:59;17.85;;;16.15;;
39218;SDS011;24934;52.752;6.964;2023-07-24T13:09:25;17.98;;;16.45;;
39218;SDS011;24934;52.752;6.964;2023-07-24T13:11:51;19.33;;;16.85;;
39218;SDS011;24934;52.752;6.964;2023-07-24T13:14:19;17.10;;;15.50;;
39218;SDS011;24934;52.752;6.964;2023-07-24T13:16:45;18.80;;;16.92;;
39218;SDS011;24934;52.752;6.964;2023-07-24T13:19:10;18.13;;;16.52;;
39218;SDS011;24934;52.752;6.964;2023-07-24T13:21:36;18.80;;;16.83;;
39218;SDS011;24934;52.752;6.964;2023-07-24T13:24:02;17.30;;;15.52;;
39218;SDS011;24934;52.752;6.964;2023-07-24T13:26:28;16.90;;;15.30;;
39218;SDS011;24934;52.752;6.964;2023-07-24T13:28:53;18.10;;;16.38;;
39218;SDS011;24934;52.752;6.964;2023-07-24T13:31:19;18.10;;;16.40;;
39218;SDS011;24934;52.752;6.964;2023-07-24T13:33:46;18.52;;;16.63;;
39218;SDS011;24934;52.752;6.964;2023-07-24T13:36:12;29.20;;;16.10;;
39218;SDS011;24934;52.752;6.964;2023-07-24T13:38:38;17.83;;;16.23;;
39218;SDS011;24934;52.752;6.964;2023-07-24T13:41:04;18.17;;;16.33;;
39218;SDS011;24934;52.752;6.964;2023-07-24T13:43:31;17.17;;;15.48;;
39218;SDS011;24934;52.752;6.964;2023-07-24T13:45:57;16.30;;;14.80;;
39218;SDS011;24934;52.752;6.964;2023-07-24T13:48:23;16.10;;;14.65;;
39218;SDS011;24934;52.752;6.964;2023-07-24T13:50:49;15.10;;;13.77;;
39218;SDS011;24934;52.752;6.964;2023-07-24T13:53:15;14.15;;;12.80;;
39218;SDS011;24934;52.752;6.964;2023-07-24T13:55:41;14.60;;;12.88;;
39218;SDS011;24934;52.752;6.964;2023-07-24T13:58:07;14.27;;;12.95;;
39218;SDS011;24934;52.752;6.964;2023-07-24T14:00:32;14.50;;;12.75;;
39218;SDS011;24934;52.752;6.964;2023-07-24T14:02:58;14.90;;;13.02;;
39218;SDS011;24934;52.752;6.964;2023-07-24T14:05:23;16.02;;;14.13;;
39218;SDS011;24934;52.752;6.964;2023-07-24T14:07:49;14.75;;;13.35;;
39218;SDS011;24934;52.752;6.964;2023-07-24T14:10:15;13.50;;;12.18;;
39218;SDS011;24934;52.752;6.964;2023-07-24T14:12:40;13.65;;;12.25;;
39218;SDS011;24934;52.752;6.964;2023-07-24T14:15:06;12.40;;;11.20;;
39218;SDS011;24934;52.752;6.964;2023-07-24T14:17:32;18.70;;;16.90;;
39218;SDS011;24934;52.752;6.964;2023-07-24T14:19:59;26.85;;;24.02;;
39218;SDS011;24934;52.752;6.964;2023-07-24T14:22:26;33.85;;;25.70;;
39218;SDS011;24934;52.752;6.964;2023-07-24T14:24:51;31.95;;;27.15;;
39218;SDS011;24934;52.752;6.964;2023-07-24T14:27:17;30.02;;;26.70;;
39218;SDS011;24934;52.752;6.964;2023-07-24T14:29:42;29.40;;;26.05;;
39218;SDS011;24934;52.752;6.964;2023-07-24T14:32:08;30.20;;;27.23;;
39218;SDS011;24934;52.752;6.964;2023-07-24T14:34:34;29.98;;;27.02;;